createdAt,value
2023-11-18T00:00:06.709Z,3.14
2023-11-18T00:05:29.014Z,3.19
2023-11-18T00:10:31.558Z,3.21
2023-11-18T00:15:36.594Z,3.21
2023-11-18T00:20:38.978Z,3.20
2023-11-18T00:25:41.839Z,3.21
2023-11-18T00:30:44.659Z,3.25
2023-11-18T00:36:08.091Z,3.26
2023-11-18T00:41:10.399Z,3.26
2023-11-18T00:46:12.885Z,3.28
2023-11-18T00:51:15.236Z,3.26
2023-11-18T00:56:19.377Z,3.17
2023-11-18T01:01:22.896Z,3.14
2023-11-18T01:06:25.197Z,3.13
2023-11-18T01:11:28.856Z,3.16
2023-11-18T01:16:31.322Z,3.18
2023-11-18T01:21:33.704Z,3.19
2023-11-18T01:26:52.953Z,3.18
2023-11-18T01:31:57.613Z,3.10
2023-11-18T01:37:00.317Z,3.02
2023-11-18T01:42:05.459Z,2.96
2023-11-18T01:48:07.591Z,2.96
2023-11-18T01:53:30.479Z,2.95
2023-11-18T01:58:34.242Z,2.96
2023-11-18T02:03:36.999Z,3.00
2023-11-18T02:08:40.178Z,3.05
2023-11-18T02:13:45.975Z,3.02
2023-11-18T02:18:50.635Z,2.95
2023-11-18T02:23:55.468Z,2.91
2023-11-18T02:28:57.938Z,2.91
2023-11-18T02:34:14.034Z,2.91
2023-11-18T02:39:30.376Z,2.89
2023-11-18T02:44:33.932Z,2.86
2023-11-18T02:49:38.040Z,2.82
2023-11-18T02:54:40.255Z,2.83
2023-11-18T02:59:42.684Z,2.80
2023-11-18T03:04:46.153Z,2.81
2023-11-18T03:09:48.449Z,2.82
2023-11-18T03:14:50.727Z,2.82
2023-11-18T03:19:53.131Z,2.79
2023-11-18T03:24:55.920Z,2.81
2023-11-18T03:29:58.555Z,2.88
2023-11-18T03:35:01.042Z,2.86
2023-11-18T03:40:03.946Z,2.82
2023-11-18T03:45:07.923Z,2.82
2023-11-18T03:50:10.767Z,2.84
2023-11-18T03:55:14.541Z,2.88
2023-11-18T04:00:17.980Z,2.88
2023-11-18T04:05:21.741Z,2.89
2023-11-18T04:10:24.416Z,2.88
2023-11-18T04:15:28.441Z,2.90
2023-11-18T04:20:30.804Z,2.92
2023-11-18T04:25:33.383Z,2.93
2023-11-18T04:30:36.453Z,2.94
2023-11-18T04:35:38.750Z,2.97
2023-11-18T04:40:42.473Z,3.03
2023-11-18T04:45:45.461Z,3.07
2023-11-18T04:50:48.584Z,3.09
2023-11-18T04:55:57.745Z,3.13
2023-11-18T05:01:00.725Z,3.15
2023-11-18T05:06:03.274Z,3.16
2023-11-18T05:11:08.216Z,3.20
2023-11-18T05:16:11.932Z,3.21
2023-11-18T05:21:18.409Z,3.19
2023-11-18T05:26:21.582Z,3.15
2023-11-18T05:31:24.337Z,3.08
2023-11-18T05:36:31.563Z,3.02
2023-11-18T05:41:36.574Z,2.95
2023-11-18T05:46:40.586Z,2.88
2023-11-18T05:51:45.967Z,2.84
2023-11-18T05:56:48.187Z,2.87
2023-11-18T06:01:51.330Z,2.91
2023-11-18T06:06:55.646Z,2.92
2023-11-18T06:12:03.514Z,2.91
2023-11-18T06:17:08.685Z,2.93
2023-11-18T06:22:11.950Z,3.01
2023-11-18T06:27:14.122Z,3.07
2023-11-18T06:32:17.407Z,3.04
2023-11-18T06:37:20.215Z,3.07
2023-11-18T06:42:24.957Z,3.13
2023-11-18T06:47:27.646Z,3.16
2023-11-18T06:52:30.411Z,3.20
2023-11-18T06:57:33.783Z,3.29
2023-11-18T07:02:36.537Z,3.41
2023-11-18T07:07:38.929Z,3.43
2023-11-18T07:12:41.252Z,3.42
2023-11-18T07:17:45.103Z,3.44
2023-11-18T07:23:47.338Z,3.47
2023-11-18T07:29:10.738Z,3.44
2023-11-18T07:34:18.374Z,3.39
2023-11-18T07:39:26.233Z,3.37
2023-11-18T07:44:30.576Z,3.34
2023-11-18T07:49:37.095Z,3.35
2023-11-18T07:54:40.670Z,3.45
2023-11-18T07:59:43.829Z,3.53
2023-11-18T08:04:47.721Z,3.62
2023-11-18T08:09:51.231Z,3.66
2023-11-18T08:14:54.963Z,3.65
2023-11-18T08:19:57.862Z,3.67
2023-11-18T08:25:02.466Z,3.75
2023-11-18T08:30:22.349Z,3.80
2023-11-18T08:35:30.761Z,3.72
2023-11-18T08:40:33.060Z,3.59
2023-11-18T08:45:38.807Z,3.51
2023-11-18T08:51:37.879Z,3.47
2023-11-18T08:56:44.259Z,3.42
2023-11-18T09:02:08.557Z,3.39
2023-11-18T09:07:31.952Z,3.44
2023-11-18T09:12:45.914Z,3.53
2023-11-18T09:18:11.894Z,3.63
2023-11-18T09:23:19.120Z,3.62
2023-11-18T09:28:22.734Z,3.61
2023-11-18T09:33:28.126Z,3.62
2023-11-18T09:38:31.798Z,3.63
2023-11-18T09:43:46.953Z,3.59
2023-11-18T09:49:00.905Z,3.52
2023-11-18T09:54:11.466Z,3.51
2023-11-18T09:59:32.417Z,3.52
2023-11-18T10:04:41.692Z,3.49
2023-11-18T10:10:00.144Z,3.41
2023-11-18T10:15:06.527Z,3.38
2023-11-18T10:21:01.231Z,3.29
2023-11-18T10:26:46.095Z,3.16
2023-11-18T10:32:19.659Z,3.10
2023-11-18T10:37:51.629Z,3.14
2023-11-18T10:43:03.604Z,3.15
2023-11-18T10:48:21.473Z,3.07
2023-11-18T10:53:32.408Z,3.01
2023-11-18T10:58:44.297Z,2.94
2023-11-18T11:04:02.637Z,2.86
2023-11-18T11:09:15.992Z,2.84
2023-11-18T11:14:22.791Z,2.91
2023-11-18T11:20:35.316Z,3.00
2023-11-18T11:25:49.858Z,3.09
2023-11-18T11:31:12.443Z,3.09
2023-11-18T11:36:41.990Z,3.00
2023-11-18T11:41:58.522Z,2.96
2023-11-18T11:47:17.180Z,2.97
2023-11-18T11:53:23.182Z,2.99
2023-11-18T11:58:47.755Z,2.97
2023-11-18T12:03:59.729Z,2.96
2023-11-18T12:09:18.507Z,2.99
2023-11-18T12:14:24.515Z,2.99
2023-11-18T12:19:40.335Z,2.98
2023-11-18T12:25:08.948Z,3.00
2023-11-18T12:30:39.607Z,3.03
2023-11-18T12:35:52.892Z,3.13
2023-11-18T12:41:12.914Z,3.27
2023-11-18T12:46:38.889Z,3.34
2023-11-18T12:51:41.388Z,3.39
2023-11-18T12:56:45.833Z,3.46
2023-11-18T13:01:55.199Z,3.42
2023-11-18T13:06:59.920Z,3.33
2023-11-18T13:12:07.202Z,3.26
2023-11-18T13:17:14.645Z,3.18
2023-11-18T13:22:20.410Z,3.12
2023-11-18T13:27:24.405Z,3.10
2023-11-18T13:32:28.201Z,3.16
2023-11-18T13:37:30.592Z,3.20
2023-11-18T13:42:34.881Z,3.16
2023-11-18T13:47:38.593Z,3.13
2023-11-18T13:52:41.185Z,3.09
2023-11-18T13:57:44.034Z,2.98
2023-11-18T14:02:49.522Z,2.86
2023-11-18T14:07:57.109Z,2.77
2023-11-18T14:13:10.790Z,2.72
2023-11-18T14:18:14.671Z,2.67
2023-11-18T14:23:17.424Z,2.64
2023-11-18T14:28:20.237Z,2.61
2023-11-18T14:33:22.545Z,2.60
2023-11-18T14:38:24.899Z,2.61
2023-11-18T14:43:29.327Z,2.62
2023-11-18T14:48:31.592Z,2.59
2023-11-18T14:53:37.920Z,2.53
2023-11-18T14:58:40.325Z,2.48
2023-11-18T15:04:03.923Z,2.42
2023-11-18T15:09:06.701Z,2.38
2023-11-18T15:14:09.204Z,2.31
2023-11-18T15:19:13.144Z,2.29
2023-11-18T15:24:15.557Z,2.32
2023-11-18T15:29:18.142Z,2.33
2023-11-18T15:34:20.904Z,2.29
2023-11-18T15:39:24.818Z,2.23
2023-11-18T15:44:29.999Z,2.24
2023-11-18T15:49:32.265Z,2.30
2023-11-18T15:54:35.103Z,2.31
2023-11-18T15:59:37.932Z,2.29
2023-11-18T16:04:41.194Z,2.25
2023-11-18T16:09:43.425Z,2.24
2023-11-18T16:14:47.017Z,2.26
2023-11-18T16:19:51.196Z,2.29
2023-11-18T16:24:53.453Z,2.21
2023-11-18T16:29:55.857Z,2.14
2023-11-18T16:34:58.638Z,2.10
2023-11-18T16:40:00.823Z,2.07
2023-11-18T16:45:03.245Z,2.04
2023-11-18T16:50:06.685Z,1.98
2023-11-18T16:55:10.243Z,1.97
2023-11-18T17:00:31.597Z,2.00
2023-11-18T17:05:34.544Z,2.02
2023-11-18T17:10:37.630Z,2.03
2023-11-18T17:15:40.268Z,2.01
2023-11-18T17:20:42.818Z,2.02
2023-11-18T17:25:45.295Z,2.09
2023-11-18T17:30:50.792Z,2.11
2023-11-18T17:35:53.393Z,2.11
2023-11-18T17:40:55.811Z,2.09
2023-11-18T17:45:58.515Z,2.12
2023-11-18T17:51:01.180Z,2.13
2023-11-18T17:56:03.686Z,2.14
2023-11-18T18:01:07.869Z,2.15
2023-11-18T18:06:14.484Z,2.11
2023-11-18T18:11:18.252Z,2.05
2023-11-18T18:16:21.699Z,2.02
2023-11-18T18:21:26.774Z,2.02
2023-11-18T18:26:29.353Z,1.97
2023-11-18T18:31:33.438Z,1.86
2023-11-18T18:36:37.890Z,1.77
2023-11-18T18:41:40.235Z,1.76
2023-11-18T18:46:43.278Z,1.80
2023-11-18T18:51:45.857Z,1.85
2023-11-18T18:56:48.714Z,1.85
2023-11-18T19:02:51.419Z,1.79
2023-11-18T19:09:12.830Z,1.75
2023-11-18T19:15:15.012Z,1.74
2023-11-18T19:20:37.282Z,1.73
2023-11-18T19:25:39.572Z,1.70
2023-11-18T19:30:41.728Z,1.66
2023-11-18T19:35:44.397Z,1.65
2023-11-18T19:40:47.140Z,1.63
2023-11-18T19:45:50.337Z,1.62
2023-11-18T20:20:34.314Z,3.03
2023-11-18T20:25:46.773Z,2.88
2023-11-18T20:30:50.643Z,2.67
2023-11-18T20:35:57.822Z,2.37
2023-11-18T20:42:02.054Z,2.05
2023-11-18T20:47:25.861Z,1.77
2023-11-18T20:53:28.128Z,1.55
2023-11-18T20:58:55.993Z,1.35
2023-11-18T21:03:58.387Z,1.24
2023-11-18T21:09:00.826Z,1.20
2023-11-18T21:14:04.874Z,1.11
2023-11-18T21:19:09.315Z,1.00
2023-11-18T21:24:13.112Z,0.91
2023-11-18T21:29:19.031Z,0.82
2023-11-18T21:34:21.749Z,0.79
2023-11-18T21:39:24.738Z,0.80
2023-11-18T21:44:28.523Z,0.78
2023-11-18T21:49:31.206Z,0.75
2023-11-18T21:54:37.091Z,0.69
2023-11-18T21:59:40.337Z,0.65
2023-11-18T22:04:42.847Z,0.67
2023-11-18T22:09:48.534Z,0.71
2023-11-18T22:14:51.060Z,0.68
2023-11-18T22:19:54.000Z,0.58
2023-11-18T22:24:58.072Z,0.43
2023-11-18T22:30:04.939Z,0.26
2023-11-18T22:35:11.313Z,0.06
2023-11-18T22:41:13.264Z,-0.19
2023-11-18T22:47:35.177Z,-0.43
2023-11-18T22:53:57.151Z,-0.52
2023-11-18T22:59:26.180Z,-0.50
2023-11-18T23:04:29.768Z,-0.47
2023-11-18T23:09:33.462Z,-0.43
2023-11-18T23:14:36.421Z,-0.38
2023-11-18T23:19:47.679Z,-0.36
2023-11-18T23:24:53.967Z,-0.39
2023-11-18T23:29:56.571Z,-0.42
2023-11-18T23:34:59.563Z,-0.43
2023-11-18T23:40:07.064Z,-0.45
2023-11-18T23:45:16.120Z,-0.55
2023-11-18T23:50:18.628Z,-0.69
2023-11-18T23:55:20.999Z,-0.78
